Time;durP1;ratioP1;P1;durP2;ratioP2;P2;SDS_P1;SDS_P2;PMS_P1;PMS_P2;Temp;Humidity;BMP_temperature;BMP_pressure;BME280_temperature;BME280_humidity;BME280_pressure;Samples;Min_cycle;Max_cycle;Signal;HPM_P1;HPM_P2
2022/07/02 05:30:53;;;;;;;;;18.25;16.25;;;;;19.38;69.15;101806.06;5133248;27;45409;-71
2022/07/02 05:33:18;;;;;;;;;18.25;16.75;;;;;20.76;63.36;101796.56;5115321;27;46771;-69
2022/07/02 05:35:44;;;;;;;;;14.00;14.00;;;;;21.63;60.03;101797.09;5132284;27;45263;-65
2022/07/02 05:38:09;;;;;;;;;15.75;13.50;;;;;22.35;57.06;101799.03;5114496;27;45442;-63
2022/07/02 05:40:35;;;;;;;;;16.75;13.00;;;;;22.85;55.07;101801.28;5113895;27;46276;-67
2022/07/02 05:43:01;;;;;;;;;17.00;13.75;;;;;23.33;53.84;101804.44;5111927;27;45430;-65
2022/07/02 05:45:26;;;;;;;;;14.25;13.75;;;;;23.76;52.56;101796.38;5113835;27;45475;-65
2022/07/02 05:47:52;;;;;;;;;16.25;13.75;;;;;24.08;51.12;101797.75;5113750;27;45321;-65
2022/07/02 05:50:17;;;;;;;;;16.00;15.00;;;;;24.32;50.03;101789.09;5110474;27;45622;-65
2022/07/02 05:52:43;;;;;;;;;14.25;13.50;;;;;24.57;49.74;101795.25;5113313;27;45247;-65
2022/07/02 05:55:11;;;;;;;;;17.25;14.00;;;;;24.85;48.79;101801.31;5106194;27;45549;-64
2022/07/02 05:57:37;;;;;;;;;18.75;17.50;;;;;25.06;48.08;101799.81;5112343;27;45439;-65
2022/07/02 06:00:04;;;;;;;;;16.25;15.50;;;;;25.30;46.83;101799.00;5113041;27;46534;-64
2022/07/02 06:02:30;;;;;;;;;22.75;18.50;;;;;25.47;46.48;101802.13;5113969;27;45816;-65
2022/07/02 06:04:55;;;;;;;;;21.50;21.25;;;;;25.72;46.07;101805.66;5118297;27;45559;-64
2022/07/02 06:07:39;;;;;;;;;21.75;19.00;;;;;25.84;45.41;101801.25;5117004;27;45406;-66
2022/07/02 06:10:05;;;;;;;;;16.50;13.50;;;;;25.97;45.06;101797.53;5109720;27;45596;-66
2022/07/02 06:12:31;;;;;;;;;18.00;16.50;;;;;26.08;44.62;101796.75;5115986;27;45426;-66
2022/07/02 06:14:56;;;;;;;;;20.50;17.25;;;;;26.25;44.24;101795.44;5105918;27;45429;-63
2022/07/02 06:17:22;;;;;;;;;21.00;16.00;;;;;26.34;43.71;101800.94;5107084;27;45565;-64
2022/07/02 06:19:48;;;;;;;;;19.50;17.00;;;;;26.49;43.33;101804.25;5111603;27;46492;-64
2022/07/02 06:22:14;;;;;;;;;13.25;13.00;;;;;26.72;43.07;101801.59;5108229;27;45430;-64
2022/07/02 06:24:39;;;;;;;;;17.00;16.25;;;;;26.94;42.48;101807.78;5112484;27;45444;-64
2022/07/02 06:27:05;;;;;;;;;20.75;19.25;;;;;27.08;41.83;101803.19;5109112;27;45490;-65
2022/07/02 06:29:31;;;;;;;;;20.75;19.00;;;;;27.28;41.63;101805.09;5112892;27;45443;-64
2022/07/02 06:31:57;;;;;;;;;14.75;11.75;;;;;27.35;41.45;101798.28;5108309;27;45397;-66
2022/07/02 06:34:22;;;;;;;;;16.00;15.25;;;;;27.47;40.87;101807.13;5112664;27;45485;-64
2022/07/02 06:36:48;;;;;;;;;18.00;15.00;;;;;27.44;40.59;101808.22;5116238;27;45593;-65
2022/07/02 06:39:13;;;;;;;;;8.25;6.75;;;;;27.46;39.91;101808.94;5128148;27;48561;-65
2022/07/02 06:44:22;;;;;;;;;10.00;10.00;;;;;27.81;38.73;101792.69;5098348;27;45578;-64
2022/07/02 06:46:48;;;;;;;;;10.00;7.75;;;;;27.96;37.89;101797.72;5100895;27;45340;-63
2022/07/02 06:49:13;;;;;;;;;7.25;6.75;;;;;28.05;36.92;101792.47;5095702;27;45572;-64
2022/07/02 06:51:38;;;;;;;;;5.50;5.25;;;;;28.09;37.44;101795.72;5098254;27;45312;-65
2022/07/02 06:54:04;;;;;;;;;9.00;9.00;;;;;28.05;36.32;101792.47;5095621;27;45586;-65
2022/07/02 06:56:36;;;;;;;;;6.25;6.00;;;;;28.19;36.08;101797.47;5092485;27;45456;-62
2022/07/02 06:59:03;;;;;;;;;7.00;5.50;;;;;28.36;35.43;101792.53;5095433;27;46249;-62
2022/07/02 07:01:28;;;;;;;;;7.25;6.00;;;;;28.49;35.40;101798.53;5097092;27;45645;-64
2022/07/02 07:03:53;;;;;;;;;5.50;5.00;;;;;28.62;34.66;101799.16;5098469;27;45489;-64
2022/07/02 07:06:23;;;;;;;;;8.00;4.50;;;;;28.82;35.09;101799.22;5099511;27;51901;-65
2022/07/02 07:08:52;;;;;;;;;8.75;6.00;;;;;28.89;34.63;101795.94;5097818;27;46231;-65
2022/07/02 07:11:19;;;;;;;;;8.75;5.25;;;;;28.98;34.36;101800.44;5096593;27;45432;-65
2022/07/02 07:13:44;;;;;;;;;8.50;5.75;;;;;29.15;34.36;101801.63;5097951;27;45284;-65
2022/07/02 07:16:10;;;;;;;;;4.75;4.75;;;;;29.30;34.13;101792.22;5096327;27;45288;-65
2022/07/02 07:18:35;;;;;;;;;5.75;4.75;;;;;29.43;33.59;101799.13;5098797;27;45316;-65
2022/07/02 07:21:01;;;;;;;;;3.75;3.75;;;;;29.51;32.73;101799.34;5098234;27;45261;-66
2022/07/02 07:23:26;;;;;;;;;5.25;4.00;;;;;29.67;33.23;101795.13;5096336;27;45309;-66
2022/07/02 07:25:51;;;;;;;;;3.25;3.00;;;;;29.87;32.36;101782.56;5096834;27;45430;-66
2022/07/02 07:28:17;;;;;;;;;3.50;3.50;;;;;29.88;31.73;101789.63;5096320;27;46558;-66
2022/07/02 07:30:43;;;;;;;;;3.00;3.00;;;;;30.04;31.88;101788.25;5098160;27;45216;-67
2022/07/02 07:33:08;;;;;;;;;4.25;3.25;;;;;30.13;31.46;101790.03;5100009;27;45234;-67
2022/07/02 07:35:33;;;;;;;;;7.50;4.75;;;;;30.22;31.64;101792.69;5096546;27;46449;-67
2022/07/02 07:37:59;;;;;;;;;6.75;3.75;;;;;30.33;31.30;101786.31;5095088;27;45513;-66
2022/07/02 07:40:26;;;;;;;;;5.50;3.75;;;;;30.43;31.14;101787.13;5099000;27;45375;-69
2022/07/02 07:42:52;;;;;;;;;3.00;3.00;;;;;30.48;30.51;101786.72;5097354;27;45314;-67
2022/07/02 07:45:17;;;;;;;;;2.75;2.75;;;;;30.55;30.84;101780.59;5095585;27;45338;-68
2022/07/02 07:47:43;;;;;;;;;2.75;2.75;;;;;30.60;30.25;101788.22;5097791;27;45553;-67
2022/07/02 07:50:08;;;;;;;;;3.75;2.50;;;;;30.72;29.86;101778.19;5096089;27;45447;-67
2022/07/02 07:52:34;;;;;;;;;3.00;3.00;;;;;30.86;30.01;101780.38;5094157;27;45370;-67
2022/07/02 07:54:59;;;;;;;;;2.00;2.00;;;;;30.91;30.35;101769.19;5099375;27;45503;-67
2022/07/02 07:57:25;;;;;;;;;1.75;1.75;;;;;31.03;29.91;101776.03;5097853;27;45535;-68
2022/07/02 07:59:52;;;;;;;;;3.25;2.00;;;;;31.17;29.96;101778.25;5108189;27;45518;-66
2022/07/02 08:02:18;;;;;;;;;3.00;3.00;;;;;31.27;29.61;101778.19;5101693;27;45375;-66
2022/07/02 08:04:43;;;;;;;;;3.00;2.00;;;;;31.31;29.06;101774.19;5092461;27;45472;-64
2022/07/02 08:07:08;;;;;;;;;2.00;2.00;;;;;31.33;28.95;101772.19;5098590;27;46206;-63
2022/07/02 08:09:34;;;;;;;;;2.00;2.00;;;;;31.50;28.90;101768.69;5101578;27;45446;-63
2022/07/02 08:11:59;;;;;;;;;5.25;3.00;;;;;31.68;28.28;101772.22;5090047;27;45450;-65
2022/07/02 08:14:25;;;;;;;;;3.50;3.00;;;;;31.66;27.98;101773.38;5110147;27;45285;-66
2022/07/02 08:16:50;;;;;;;;;1.75;1.75;;;;;31.57;27.39;101764.38;5115372;27;46054;-66
2022/07/02 08:19:16;;;;;;;;;3.00;3.00;;;;;31.51;28.05;101773.06;5101682;27;45446;-65
2022/07/02 08:21:41;;;;;;;;;2.00;2.00;;;;;31.62;27.64;101762.06;5093885;27;45777;-64
2022/07/02 08:24:06;;;;;;;;;1.50;1.00;;;;;31.62;27.71;101764.75;5094770;27;45420;-65
2022/07/02 08:26:32;;;;;;;;;1.25;1.00;;;;;31.53;26.74;101773.75;5103245;27;46298;-64
2022/07/02 08:28:57;;;;;;;;;2.00;2.00;;;;;31.43;26.84;101771.13;5096485;27;45412;-47
2022/07/02 08:31:22;;;;;;;;;2.00;2.00;;;;;31.57;28.95;101761.69;5098679;27;45407;-47
2022/07/02 08:33:48;;;;;;;;;2.75;2.00;;;;;31.74;28.04;101760.84;5093079;27;45454;-49
2022/07/02 08:36:13;;;;;;;;;1.50;1.50;;;;;31.86;27.32;101768.69;5099773;27;46238;-48
2022/07/02 08:38:39;;;;;;;;;2.00;1.75;;;;;31.91;27.87;101767.22;5101478;27;45238;-48
2022/07/02 08:41:06;;;;;;;;;1.25;1.25;;;;;31.96;27.18;101764.88;5097550;27;45190;-49
2022/07/02 08:43:32;;;;;;;;;2.75;2.00;;;;;32.10;26.72;101763.50;5092339;27;45228;-47
2022/07/02 08:46:02;;;;;;;;;2.00;1.25;;;;;32.22;27.12;101762.19;5088566;27;46241;-50
2022/07/02 08:48:28;;;;;;;;;2.00;2.00;;;;;32.28;27.15;101756.25;5086143;27;45302;-47
2022/07/02 08:50:56;;;;;;;;;3.75;2.00;;;;;32.43;26.98;101761.84;5085723;27;45469;-51
2022/07/02 08:53:21;;;;;;;;;4.00;2.00;;;;;32.44;26.78;101754.63;5087428;27;45188;-48
2022/07/02 08:55:50;;;;;;;;;2.75;2.00;;;;;32.50;27.10;101751.31;5095429;27;45625;-50
2022/07/02 08:58:16;;;;;;;;;1.50;0.75;;;;;32.35;24.89;101754.59;5099130;27;45536;-50
2022/07/02 09:00:42;;;;;;;;;1.50;1.50;;;;;32.34;25.98;101746.69;5097622;27;45677;-51
2022/07/02 09:03:09;;;;;;;;;2.00;2.00;;;;;32.46;26.23;101741.88;5096847;27;46056;-51
2022/07/02 09:05:38;;;;;;;;;2.50;1.00;;;;;32.54;24.36;101739.22;5104561;27;47120;-68
2022/07/02 09:08:05;;;;;;;;;2.75;1.00;;;;;32.57;24.59;101741.56;5094180;27;45456;-65
2022/07/02 09:10:31;;;;;;;;;1.00;1.00;;;;;32.63;24.94;101749.00;5095652;27;45453;-64
2022/07/02 09:12:58;;;;;;;;;1.00;1.00;;;;;32.64;25.27;101748.03;5097599;27;45669;-64
2022/07/02 09:15:23;;;;;;;;;1.00;0.00;;;;;32.49;23.77;101736.16;5099858;27;45383;-69
2022/07/02 09:17:50;;;;;;;;;1.00;1.00;;;;;32.40;24.32;101737.97;5097309;27;45494;-66
2022/07/02 09:20:15;;;;;;;;;1.00;1.00;;;;;32.40;24.90;101746.03;5096328;27;45409;-68
2022/07/02 09:22:47;;;;;;;;;1.00;1.00;;;;;32.41;24.76;101745.03;5094248;27;45511;-68
2022/07/02 09:25:18;;;;;;;;;1.00;1.00;;;;;32.48;24.98;101742.56;5111708;27;46820;-70
2022/07/02 09:27:45;;;;;;;;;0.25;0.25;;;;;32.64;24.46;101748.03;5095698;27;45747;-69
2022/07/02 09:30:14;;;;;;;;;2.25;0.75;;;;;32.79;24.41;101735.59;5096253;27;45435;-68
2022/07/02 09:32:43;;;;;;;;;1.00;1.00;;;;;32.78;24.22;101736.59;5095908;27;45361;-68
2022/07/02 09:35:19;;;;;;;;;0.00;0.00;;;;;32.76;24.38;101744.00;5096133;27;45621;-62
2022/07/02 09:37:46;;;;;;;;;1.00;1.00;;;;;32.77;23.56;101736.78;5091693;27;45644;-60
2022/07/02 09:40:12;;;;;;;;;2.00;2.00;;;;;32.68;23.09;101728.69;5096124;27;45371;-55
2022/07/02 09:42:37;;;;;;;;;2.50;1.00;;;;;32.49;24.05;101726.25;5095202;27;45357;-55
2022/07/02 09:45:05;;;;;;;;;0.00;0.00;;;;;32.62;23.49;101723.09;5092978;27;45431;-55
2022/07/02 09:47:35;;;;;;;;;3.25;2.00;;;;;32.80;24.54;101740.00;5095196;27;45692;-55
2022/07/02 09:50:09;;;;;;;;;1.00;1.00;;;;;33.00;24.59;101724.41;5094348;27;45672;-55
2022/07/02 09:52:35;;;;;;;;;2.75;1.00;;;;;33.05;24.63;101730.19;5096299;27;45448;-52
2022/07/02 09:55:01;;;;;;;;;1.00;1.00;;;;;33.10;23.71;101718.91;5096039;27;47200;-53
2022/07/02 09:57:26;;;;;;;;;2.00;2.00;;;;;33.16;23.53;101721.75;5094203;27;45527;-56
2022/07/02 09:59:52;;;;;;;;;5.00;2.00;;;;;33.32;24.78;101715.59;5094882;27;45321;-55
2022/07/02 10:02:25;;;;;;;;;2.00;1.50;;;;;33.49;24.03;101725.38;5093470;27;45748;-55
2022/07/02 10:04:53;;;;;;;;;3.25;1.00;;;;;33.50;23.25;101718.13;5091309;27;46615;-56
2022/07/02 10:07:21;;;;;;;;;2.00;2.00;;;;;33.49;23.31;101713.75;5093286;27;45710;-54
2022/07/02 10:09:47;;;;;;;;;4.50;2.00;;;;;33.62;23.67;101710.53;5095509;27;45492;-54
2022/07/02 10:12:14;;;;;;;;;1.00;1.00;;;;;33.60;23.51;101709.84;5096276;27;45161;-53
2022/07/02 10:14:40;;;;;;;;;1.00;1.00;;;;;33.52;23.39;101711.56;5096316;27;45749;-51
2022/07/02 10:17:08;;;;;;;;;1.50;1.00;;;;;33.44;22.73;101703.47;5098164;27;45431;-55
2022/07/02 10:19:34;;;;;;;;;1.00;1.00;;;;;33.38;23.60;101706.81;5115333;27;45461;-55
2022/07/02 10:22:02;;;;;;;;;3.00;1.25;;;;;33.45;23.19;101694.38;5099121;27;45557;-54
2022/07/02 10:24:28;;;;;;;;;0.00;0.00;;;;;33.56;23.67;101690.50;5098883;27;45562;-56
2022/07/02 10:26:55;;;;;;;;;2.50;1.00;;;;;33.77;23.81;101698.06;5101085;27;45211;-54
2022/07/02 10:29:21;;;;;;;;;1.00;1.00;;;;;33.85;24.08;101690.84;5099614;27;45433;-55
2022/07/02 10:31:52;;;;;;;;;1.00;1.00;;;;;33.76;23.39;101685.59;5099883;27;45585;-72
2022/07/02 10:34:46;;;;;;;;;1.00;1.00;;;;;33.83;22.70;101689.28;5095273;27;46534;-69
2022/07/02 10:37:12;;;;;;;;;4.50;1.25;;;;;33.89;22.59;101688.63;5106732;27;45547;-76
2022/07/02 10:39:39;;;;;;;;;1.75;0.50;;;;;33.97;22.23;101672.41;5099255;27;45303;-65
2022/07/02 10:42:04;;;;;;;;;1.00;1.00;;;;;34.03;21.63;101673.56;5098485;27;45492;-65
2022/07/02 10:44:40;;;;;;;;;1.00;1.00;;;;;34.04;22.69;101681.53;5100434;27;46232;-65
2022/07/02 10:47:25;;;;;;;;;3.50;2.00;;;;;34.16;22.54;101674.72;5098191;27;45398;-65
2022/07/02 10:50:00;;;;;;;;;6.50;1.25;;;;;34.15;22.41;101681.13;5114703;27;45469;-63
2022/07/02 10:52:49;;;;;;;;;2.25;2.00;;;;;34.04;21.91;101683.34;5097906;27;46439;-62
2022/07/02 10:55:30;;;;;;;;;1.00;1.00;;;;;34.06;22.17;101668.69;5098148;27;46458;-64
2022/07/02 10:58:00;;;;;;;;;1.25;1.25;;;;;34.18;21.76;101675.38;5097846;27;45307;-64
2022/07/02 11:00:31;;;;;;;;;1.00;1.00;;;;;34.23;22.12;101666.75;5096742;27;45490;-65
2022/07/02 11:02:58;;;;;;;;;1.00;1.00;;;;;34.17;21.68;101668.31;5093718;27;45274;-66
2022/07/02 11:05:24;;;;;;;;;1.25;1.00;;;;;34.12;21.00;101665.31;5099632;27;45372;-63
2022/07/02 11:07:50;;;;;;;;;1.50;1.00;;;;;33.99;21.42;101661.47;5097395;27;45272;-65
2022/07/02 11:10:15;;;;;;;;;1.00;1.00;;;;;34.01;21.37;101662.97;5097156;27;45424;-65
2022/07/02 11:13:02;;;;;;;;;2.75;2.25;;;;;34.15;21.27;101667.66;5100868;27;45439;-64
2022/07/02 11:15:34;;;;;;;;;1.75;1.00;;;;;34.30;21.35;101672.31;5093727;27;46288;-65
2022/07/02 11:18:03;;;;;;;;;2.50;1.00;;;;;34.30;21.47;101673.16;5099875;27;45301;-63
2022/07/02 11:20:28;;;;;;;;;4.00;4.00;;;;;34.38;21.42;101667.75;5101314;27;45264;-62
2022/07/02 11:22:57;;;;;;;;;0.50;0.00;;;;;34.25;20.73;101667.47;5088301;27;45238;-65
2022/07/02 11:25:23;;;;;;;;;1.75;1.75;;;;;34.29;21.36;101659.84;5106560;27;48012;-64
2022/07/02 11:27:59;;;;;;;;;1.25;1.25;;;;;34.43;20.99;101668.06;5100608;27;45344;-63
2022/07/02 11:30:30;;;;;;;;;0.75;0.75;;;;;34.47;21.07;101660.47;5100603;27;45262;-65
2022/07/02 11:32:56;;;;;;;;;2.00;2.00;;;;;34.54;20.95;101666.00;5100429;27;45332;-63
2022/07/02 11:35:21;;;;;;;;;4.50;3.50;;;;;34.52;21.12;101668.88;5100100;27;45381;-63
2022/07/02 11:37:46;;;;;;;;;1.00;1.00;;;;;34.59;21.35;101656.34;5100186;27;45329;-66
2022/07/02 11:40:22;;;;;;;;;2.00;1.75;;;;;34.63;21.21;101659.53;5100536;27;45294;-62
2022/07/02 11:42:48;;;;;;;;;1.00;1.00;;;;;34.75;21.22;101650.00;5100444;27;45304;-66
2022/07/02 11:45:14;;;;;;;;;1.00;1.00;;;;;34.85;21.06;101652.53;5095076;27;46329;-66
2022/07/02 11:47:47;;;;;;;;;2.00;2.00;;;;;34.95;20.72;101658.53;5090633;27;45336;-61
2022/07/02 11:50:13;;;;;;;;;3.75;2.50;;;;;34.84;20.22;101648.09;5100295;27;45464;-65
2022/07/02 11:52:40;;;;;;;;;2.75;2.00;;;;;34.80;21.45;101647.59;5098695;27;45707;-65
2022/07/02 11:55:05;;;;;;;;;2.00;2.00;;;;;34.80;21.01;101646.78;5099973;27;46038;-64
2022/07/02 11:57:32;;;;;;;;;2.00;2.00;;;;;34.96;21.04;101627.78;5095460;27;45986;-63
2022/07/02 11:59:57;;;;;;;;;1.25;1.25;;;;;35.01;20.74;101628.06;5091061;27;45350;-63
2022/07/02 12:02:23;;;;;;;;;2.00;1.75;;;;;35.01;20.67;101625.38;5100205;27;45249;-63
2022/07/02 12:04:48;;;;;;;;;2.00;2.00;;;;;35.13;20.38;101625.81;5098368;27;45926;-65
2022/07/02 12:07:13;;;;;;;;;2.00;2.00;;;;;35.21;20.93;101628.41;5100041;27;45286;-50
2022/07/02 12:09:39;;;;;;;;;1.75;1.75;;;;;35.25;21.09;101625.19;5100001;27;45406;-50
2022/07/02 12:12:05;;;;;;;;;6.25;2.00;;;;;35.26;20.93;101623.34;5099784;27;45323;-51
2022/07/02 12:14:31;;;;;;;;;4.00;2.00;;;;;35.17;20.87;101619.00;5113413;27;45454;-51
2022/07/02 12:16:57;;;;;;;;;4.50;3.00;;;;;35.14;20.68;101606.69;5100060;27;45267;-51
2022/07/02 12:19:30;;;;;;;;;2.25;2.25;;;;;35.16;20.42;101603.81;5099789;27;45392;-49
2022/07/02 12:21:55;;;;;;;;;2.25;2.00;;;;;35.21;21.37;101606.81;5100055;27;45372;-49
2022/07/02 12:24:31;;;;;;;;;1.50;1.50;;;;;35.24;20.73;101607.31;5095014;27;45274;-50
2022/07/02 12:26:59;;;;;;;;;2.00;2.00;;;;;35.23;20.70;101597.47;5092434;27;45362;-47
2022/07/02 12:32:15;;;;;;;;;4.00;1.75;;;;;35.04;20.36;101587.19;5099756;27;45417;-65
2022/07/02 12:34:46;;;;;;;;;2.00;2.00;;;;;35.15;20.65;101584.06;5098153;27;47500;-64
2022/07/02 12:37:27;;;;;;;;;2.00;2.00;;;;;35.18;21.03;101589.09;5099587;27;45416;-64
2022/07/02 12:40:06;;;;;;;;;2.25;2.25;;;;;35.27;20.29;101585.31;5099592;27;45290;-64
2022/07/02 12:42:33;;;;;;;;;3.00;3.00;;;;;35.21;19.64;101577.06;5099509;27;45508;-63
2022/07/02 12:45:05;;;;;;;;;4.00;2.25;;;;;35.21;20.27;101571.66;5096021;27;46473;-63
2022/07/02 12:47:33;;;;;;;;;1.25;1.25;;;;;35.33;20.53;101564.81;5109180;27;45215;-64
2022/07/02 12:50:20;;;;;;;;;4.00;3.50;;;;;35.41;20.68;101558.50;5102911;27;45333;-65
2022/07/02 12:52:51;;;;;;;;;2.00;2.00;;;;;35.42;20.39;101552.06;5099561;27;45368;-64
2022/07/02 12:55:38;;;;;;;;;2.25;2.25;;;;;35.51;20.14;101545.56;5097719;27;45456;-65
2022/07/02 12:58:08;;;;;;;;;4.25;4.00;;;;;35.61;20.18;101546.09;5098294;27;45550;-66
2022/07/02 13:00:36;;;;;;;;;2.00;2.00;;;;;35.50;19.51;101543.88;5099689;27;45393;-66
2022/07/02 13:03:05;;;;;;;;;1.00;1.00;;;;;35.38;19.42;101538.06;5114883;27;45385;-50
2022/07/02 13:05:34;;;;;;;;;2.75;2.75;;;;;35.24;20.26;101542.44;5099274;27;46176;-51
2022/07/02 13:07:59;;;;;;;;;3.75;2.75;;;;;35.31;20.43;101534.41;5099200;27;45561;-52
2022/07/02 13:10:25;;;;;;;;;2.50;2.00;;;;;35.34;20.46;101544.84;5099390;27;45725;-58
2022/07/02 13:12:50;;;;;;;;;1.00;1.00;;;;;35.41;20.29;101544.97;5099446;27;45255;-54
2022/07/02 13:15:16;;;;;;;;;3.25;3.25;;;;;35.54;20.33;101542.47;5099278;27;46819;-52
2022/07/02 13:17:42;;;;;;;;;1.00;1.00;;;;;35.64;20.05;101532.19;5089985;27;45404;-51
2022/07/02 13:20:10;;;;;;;;;2.00;2.00;;;;;35.74;20.41;101526.53;5092810;27;45167;-51
2022/07/02 13:22:36;;;;;;;;;1.00;1.00;;;;;35.81;20.30;101522.88;5094480;27;45331;-48
2022/07/02 13:25:02;;;;;;;;;2.50;1.50;;;;;35.83;20.21;101518.13;5089172;27;45792;-51
2022/07/02 13:27:27;;;;;;;;;2.50;2.00;;;;;35.80;20.33;101512.22;5098429;27;45397;-53
2022/07/02 13:29:54;;;;;;;;;0.50;0.00;;;;;35.76;20.68;101506.38;5089765;27;45320;-54
2022/07/02 13:32:19;;;;;;;;;2.00;2.00;;;;;35.52;19.43;101504.81;5101699;27;45468;-54
2022/07/02 13:34:45;;;;;;;;;1.00;1.00;;;;;35.53;20.37;101502.94;5087534;27;46271;-52
2022/07/02 13:37:11;;;;;;;;;3.00;3.00;;;;;35.55;20.35;101498.19;5091772;27;45411;-52
2022/07/02 13:39:36;;;;;;;;;2.75;2.75;;;;;35.52;20.18;101495.88;5079114;27;45483;-52
2022/07/02 13:42:02;;;;;;;;;2.00;1.25;;;;;35.45;20.47;101503.06;5096098;27;45441;-52
2022/07/02 13:44:28;;;;;;;;;2.25;2.25;;;;;35.44;20.51;101501.34;5097872;27;45458;-51
2022/07/02 13:46:54;;;;;;;;;3.25;3.25;;;;;35.44;19.65;101502.19;5097988;27;45529;-51
2022/07/02 13:49:20;;;;;;;;;3.00;3.00;;;;;35.50;20.14;101490.66;5095839;27;45449;-52
2022/07/02 13:51:46;;;;;;;;;6.50;3.00;;;;;35.44;19.80;101493.25;5098485;27;45427;-50
2022/07/02 13:54:12;;;;;;;;;6.00;3.00;;;;;35.47;20.37;101495.59;5099985;27;46133;-51
2022/07/02 13:56:37;;;;;;;;;2.75;1.50;;;;;35.63;19.65;101489.97;5098537;27;45429;-49
2022/07/02 13:59:04;;;;;;;;;3.00;3.00;;;;;35.72;19.68;101496.97;5100341;27;45411;-51
2022/07/02 14:01:29;;;;;;;;;2.00;2.00;;;;;36.06;19.83;101495.53;5099923;27;45385;-51
2022/07/02 14:03:55;;;;;;;;;3.00;2.00;;;;;36.53;19.56;101490.41;5101680;27;45288;-51
2022/07/02 14:06:20;;;;;;;;;2.00;2.00;;;;;37.23;18.91;101493.25;5102349;27;45172;-52
2022/07/02 14:08:46;;;;;;;;;2.25;2.25;;;;;37.77;19.16;101487.13;5102524;27;45228;-51
2022/07/02 14:11:12;;;;;;;;;1.25;1.25;;;;;38.55;19.13;101485.66;5101934;27;45443;-49
2022/07/02 14:13:38;;;;;;;;;3.50;1.75;;;;;39.33;18.23;101473.09;5101962;27;46439;-52
2022/07/02 14:16:05;;;;;;;;;2.00;2.00;;;;;39.97;17.63;101476.84;5102207;27;45178;-50
2022/07/02 14:18:30;;;;;;;;;1.00;1.00;;;;;40.52;18.03;101483.41;5102055;27;45399;-51
2022/07/02 14:20:56;;;;;;;;;3.75;2.00;;;;;40.94;17.31;101473.63;5101957;27;45421;-52
2022/07/02 14:23:21;;;;;;;;;1.00;1.00;;;;;41.31;17.22;101484.59;5101937;27;45890;-51
2022/07/02 14:25:46;;;;;;;;;0.00;0.00;;;;;41.81;16.96;101482.50;5101531;27;45337;-51
2022/07/02 14:28:12;;;;;;;;;1.00;1.00;;;;;42.54;17.06;101477.91;5102003;27;45336;-51
2022/07/02 14:30:39;;;;;;;;;0.75;0.75;;;;;43.28;16.50;101468.13;5101335;27;45337;-50
2022/07/02 14:33:05;;;;;;;;;1.75;1.75;;;;;44.09;16.15;101469.81;5101796;27;45637;-52
2022/07/02 14:35:30;;;;;;;;;0.00;0.00;;;;;44.53;15.23;101472.75;5102213;27;45231;-52
2022/07/02 14:37:56;;;;;;;;;2.25;1.00;;;;;45.14;14.95;101477.25;5102263;27;45520;-53
2022/07/02 14:40:21;;;;;;;;;0.50;0.50;;;;;45.52;14.87;101474.72;5100745;27;45190;-51
2022/07/02 14:42:46;;;;;;;;;0.25;0.25;;;;;45.63;14.80;101468.25;5101531;27;45170;-50
2022/07/02 14:45:12;;;;;;;;;1.50;1.00;;;;;45.98;14.50;101479.63;5101666;27;45307;-52
2022/07/02 14:47:37;;;;;;;;;1.75;1.75;;;;;46.50;14.06;101472.72;5101537;27;45505;-51
2022/07/02 14:50:03;;;;;;;;;1.00;1.00;;;;;46.91;13.76;101471.06;5101444;27;45610;-53
2022/07/02 14:52:28;;;;;;;;;2.00;0.50;;;;;47.51;13.72;101467.81;5101368;27;46893;-52
2022/07/02 14:54:53;;;;;;;;;1.00;1.00;;;;;48.26;11.74;101464.63;5101451;27;45264;-52
2022/07/02 14:57:19;;;;;;;;;1.00;1.00;;;;;48.72;13.03;101466.25;5101054;27;45403;-52
2022/07/02 14:59:44;;;;;;;;;2.00;1.00;;;;;48.53;12.87;101464.34;5101448;27;45431;-53
2022/07/02 15:02:11;;;;;;;;;1.75;1.00;;;;;48.25;12.98;101457.47;5100750;27;48978;-53
2022/07/02 15:04:36;;;;;;;;;0.25;0.25;;;;;48.28;13.42;101455.00;5101390;27;45758;-52
2022/07/02 15:07:02;;;;;;;;;1.00;1.00;;;;;49.04;12.49;101457.59;5101797;27;45238;-51
2022/07/02 15:09:27;;;;;;;;;1.00;1.00;;;;;49.98;12.68;101452.13;5101142;27;45393;-53
2022/07/02 15:11:53;;;;;;;;;1.00;1.00;;;;;50.13;10.84;101449.28;5101069;27;45320;-53
2022/07/02 15:17:06;;;;;;;;;1.50;1.50;;;;;50.92;11.30;101441.56;5101504;27;45399;-52
2022/07/02 15:19:31;;;;;;;;;1.25;1.25;;;;;51.02;11.24;101440.63;5100752;27;45252;-51
2022/07/02 15:22:03;;;;;;;;;1.75;1.75;;;;;51.45;10.81;101443.38;5101052;27;46521;-52
2022/07/02 15:24:32;;;;;;;;;0.00;0.00;;;;;51.16;10.89;101438.78;5100957;27;45578;-52
2022/07/02 15:27:06;;;;;;;;;1.00;1.00;;;;;51.37;10.62;101445.72;5100686;27;45294;-52
2022/07/02 15:29:32;;;;;;;;;3.00;1.25;;;;;51.95;10.03;101436.25;5088233;27;45506;-52
2022/07/02 15:31:57;;;;;;;;;0.00;0.00;;;;;52.42;9.15;101437.94;5099081;27;46945;-52
2022/07/02 15:34:24;;;;;;;;;1.00;1.00;;;;;52.45;9.32;101436.50;5100493;27;45272;-52
2022/07/02 15:36:49;;;;;;;;;1.00;1.00;;;;;53.30;10.11;101430.31;5100997;27;45168;-53
2022/07/02 15:39:17;;;;;;;;;1.25;1.00;;;;;54.68;9.56;101427.69;5100785;27;45470;-52
2022/07/02 15:41:43;;;;;;;;;0.00;0.00;;;;;55.79;9.72;101423.38;5100459;27;46183;-52
2022/07/02 15:44:08;;;;;;;;;1.75;1.75;;;;;56.51;9.46;101418.94;5101027;27;45247;-54
2022/07/02 15:46:34;;;;;;;;;3.00;2.00;;;;;57.31;8.31;101414.16;5100596;27;45298;-55
2022/07/02 15:48:59;;;;;;;;;1.00;1.00;;;;;57.65;8.48;101405.78;5099649;27;45425;-53
2022/07/02 15:51:44;;;;;;;;;0.00;0.00;;;;;57.41;8.49;101403.69;5099833;27;46998;-55
2022/07/02 15:54:34;;;;;;;;;1.00;1.00;;;;;56.70;8.38;101402.56;5098514;27;45188;-54
2022/07/02 15:57:03;;;;;;;;;0.00;0.00;;;;;56.51;8.69;101399.41;5098066;27;62626;-55
2022/07/02 15:59:29;;;;;;;;;1.00;1.00;;;;;57.20;8.78;101393.34;5099690;27;45370;-53
2022/07/02 16:01:55;;;;;;;;;2.25;2.25;;;;;57.60;8.01;101395.63;5098853;27;46591;-55
2022/07/02 16:04:31;;;;;;;;;2.00;2.00;;;;;57.75;8.24;101389.41;5099585;27;45180;-55
2022/07/02 16:07:03;;;;;;;;;2.50;1.00;;;;;56.06;8.40;101385.09;5088048;27;45419;-55
2022/07/02 16:09:28;;;;;;;;;1.00;1.00;;;;;56.19;7.55;101383.25;5100192;27;45335;-62
2022/07/02 16:11:59;;;;;;;;;3.00;3.00;;;;;56.43;7.35;101380.69;5099857;27;46266;-57
2022/07/02 16:14:26;;;;;;;;;1.00;1.00;;;;;49.04;100.00;101376.72;5099308;27;45388;-57
2022/07/02 16:16:53;;;;;;;;;1.00;1.00;;;;;48.82;100.00;101379.84;5085425;27;45455;-56
2022/07/02 16:19:20;;;;;;;;;1.25;0.75;;;;;45.49;100.00;101368.97;5095904;27;45284;-56
2022/07/02 16:21:47;;;;;;;;;1.00;1.00;;;;;45.63;100.00;101367.47;5099948;27;45452;-57
2022/07/02 16:24:14;;;;;;;;;3.00;1.25;;;;;45.97;100.00;101367.22;5099508;27;45357;-56
2022/07/02 16:26:40;;;;;;;;;1.00;1.00;;;;;46.20;81.38;101361.38;5099266;27;45608;-55
2022/07/02 16:29:05;;;;;;;;;0.25;0.25;;;;;46.42;77.37;101361.28;5093754;27;45456;-56
2022/07/02 16:31:34;;;;;;;;;0.00;0.00;;;;;47.23;62.47;101367.19;5087500;27;45390;-56
2022/07/02 16:34:06;;;;;;;;;1.00;1.00;;;;;47.98;61.43;101359.31;5095148;27;45463;-56
2022/07/02 16:36:32;;;;;;;;;0.00;0.00;;;;;48.04;51.85;101363.72;5099878;27;45336;-56
2022/07/02 16:39:01;;;;;;;;;0.00;0.00;;;;;47.98;53.17;101370.34;5095427;27;45812;-56
2022/07/02 16:41:30;;;;;;;;;2.50;0.00;;;;;47.73;51.64;101362.88;5097761;27;46476;-57
2022/07/02 16:44:01;;;;;;;;;1.00;1.00;;;;;47.96;50.25;101360.69;5092706;27;45578;-55
2022/07/02 16:46:30;;;;;;;;;2.00;0.00;;;;;48.37;41.12;101355.97;5079482;27;45381;-56
2022/07/02 16:49:05;;;;;;;;;1.00;1.00;;;;;48.65;43.41;101357.28;5086594;27;45372;-56
2022/07/02 16:51:34;;;;;;;;;1.00;0.25;;;;;48.73;40.97;101356.72;5098876;27;46351;-56
2022/07/02 16:54:00;;;;;;;;;0.00;0.00;;;;;48.98;39.49;101362.13;5099826;27;45382;-56
2022/07/02 16:56:26;;;;;;;;;1.00;1.00;;;;;49.57;35.70;101355.69;5083919;27;45449;-57
2022/07/02 16:58:52;;;;;;;;;0.25;0.25;;;;;50.02;36.40;101366.69;5092596;27;46000;-57
2022/07/02 17:01:18;;;;;;;;;0.75;0.75;;;;;50.19;31.87;101362.38;5083900;27;45339;-57
2022/07/02 17:03:44;;;;;;;;;3.25;0.75;;;;;48.74;30.34;101352.84;5085181;27;45318;-57